createdAt,value
2023-05-03T00:02:07.189Z,13.30
2023-05-03T00:04:34.162Z,11.90
2023-05-03T00:07:00.571Z,11.30
2023-05-03T00:09:27.343Z,9.90
2023-05-03T00:11:53.862Z,9.30
2023-05-03T00:14:20.397Z,8.60
2023-05-03T00:16:46.949Z,7.40
2023-05-03T00:19:24.346Z,7.30
2023-05-03T00:21:57.499Z,8.10
2023-05-03T00:24:24.116Z,7.60
2023-05-03T00:26:50.617Z,7.10
2023-05-03T00:29:18.556Z,7.60
2023-05-03T00:31:45.101Z,7.10
2023-05-03T00:34:11.626Z,6.40
2023-05-03T00:36:38.197Z,6.30
2023-05-03T00:39:04.808Z,6.20
2023-05-03T00:41:31.344Z,5.60
2023-05-03T00:43:57.936Z,5.50
2023-05-03T00:46:24.531Z,5.20
2023-05-03T00:48:51.037Z,5.50
2023-05-03T00:51:18.097Z,5.20
2023-05-03T00:53:44.793Z,5.90
2023-05-03T00:56:11.547Z,5.40
2023-05-03T00:58:39.709Z,5.00
2023-05-03T01:01:09.566Z,5.30
2023-05-03T01:03:37.058Z,5.40
2023-05-03T01:06:37.964Z,5.20
2023-05-03T01:09:28.805Z,5.50
2023-05-03T01:12:52.835Z,4.90
2023-05-03T01:15:34.333Z,4.40
2023-05-03T01:18:11.675Z,4.70
2023-05-03T01:20:38.277Z,4.20
2023-05-03T01:23:10.527Z,4.50
2023-05-03T01:25:37.263Z,4.70
2023-05-03T01:28:03.797Z,4.70
2023-05-03T01:30:30.441Z,4.70
2023-05-03T01:33:32.966Z,4.50
2023-05-03T01:36:04.662Z,4.50
2023-05-03T01:38:33.295Z,3.50
2023-05-03T01:41:01.117Z,3.90
2023-05-03T01:43:27.508Z,3.80
2023-05-03T01:45:54.061Z,3.80
2023-05-03T01:48:20.730Z,3.90
2023-05-03T01:50:47.312Z,4.20
2023-05-03T01:53:13.974Z,3.60
2023-05-03T01:55:40.363Z,3.90
2023-05-03T01:58:07.087Z,3.90
2023-05-03T02:00:33.608Z,4.60
2023-05-03T02:03:00.243Z,4.10
2023-05-03T02:05:27.004Z,3.90
2023-05-03T02:07:54.141Z,4.20
2023-05-03T02:10:20.918Z,4.10
2023-05-03T02:12:47.457Z,4.00
2023-05-03T02:15:14.316Z,4.20
2023-05-03T02:17:42.190Z,4.10
2023-05-03T02:20:10.369Z,4.10
2023-05-03T02:22:36.842Z,3.80
2023-05-03T02:25:04.461Z,4.20
2023-05-03T02:27:31.167Z,4.00
2023-05-03T02:29:57.578Z,4.00
2023-05-03T02:32:24.956Z,6.10
2023-05-03T02:34:51.857Z,5.40
2023-05-03T02:37:19.622Z,5.50
2023-05-03T02:39:46.393Z,4.40
2023-05-03T02:42:13.516Z,4.40
2023-05-03T02:44:40.417Z,4.50
2023-05-03T02:47:09.113Z,5.00
2023-05-03T02:49:35.993Z,4.40
2023-05-03T02:52:03.096Z,4.30
2023-05-03T02:54:29.608Z,4.70
2023-05-03T02:56:57.126Z,4.50
2023-05-03T02:59:23.671Z,4.80
2023-05-03T03:01:50.841Z,5.10
2023-05-03T03:04:17.653Z,5.40
2023-05-03T03:06:44.280Z,6.00
2023-05-03T03:09:11.945Z,4.90
2023-05-03T03:11:39.800Z,5.00
2023-05-03T03:14:07.724Z,5.40
2023-05-03T03:16:35.490Z,5.90
2023-05-03T03:19:01.930Z,5.60
2023-05-03T03:21:29.093Z,5.40
2023-05-03T03:23:56.296Z,5.80
2023-05-03T03:26:22.894Z,7.60
2023-05-03T03:28:49.512Z,9.40
2023-05-03T03:31:17.690Z,7.20
2023-05-03T03:33:44.591Z,5.90
2023-05-03T03:36:12.748Z,6.60
2023-05-03T03:38:40.675Z,7.00
2023-05-03T03:41:07.784Z,6.90
2023-05-03T03:43:35.022Z,6.80
2023-05-03T03:46:03.008Z,7.30
2023-05-03T03:48:29.523Z,7.60
2023-05-03T03:50:56.164Z,7.60
2023-05-03T03:53:23.020Z,8.10
2023-05-03T03:55:49.522Z,7.70
2023-05-03T03:58:16.488Z,7.60
2023-05-03T04:00:43.189Z,7.10
2023-05-03T04:03:12.140Z,7.20
2023-05-03T04:05:38.956Z,7.30
2023-05-03T04:08:06.108Z,6.90
2023-05-03T04:10:33.156Z,7.00
2023-05-03T04:12:59.598Z,6.90
2023-05-03T04:15:26.844Z,7.30
2023-05-03T04:17:54.580Z,7.30
2023-05-03T04:20:22.983Z,6.80
2023-05-03T04:22:50.123Z,6.10
2023-05-03T04:25:17.623Z,6.20
2023-05-03T04:27:50.923Z,5.20
2023-05-03T04:30:17.825Z,5.30
2023-05-03T04:32:47.466Z,5.60
2023-05-03T04:35:14.597Z,5.40
2023-05-03T04:37:43.974Z,6.20
2023-05-03T04:40:11.968Z,5.10
2023-05-03T04:42:41.820Z,5.10
2023-05-03T04:45:10.242Z,4.80
2023-05-03T04:47:36.893Z,5.40
2023-05-03T04:50:04.052Z,4.60
2023-05-03T04:52:31.172Z,4.50
2023-05-03T04:54:57.821Z,4.20
2023-05-03T04:57:24.407Z,3.80
2023-05-03T04:59:53.504Z,4.30
2023-05-03T05:02:21.066Z,4.00
2023-05-03T05:04:47.923Z,4.60
2023-05-03T05:07:14.702Z,4.70
2023-05-03T05:09:41.644Z,4.60
2023-05-03T05:12:08.330Z,4.30
2023-05-03T05:14:38.597Z,4.20
2023-05-03T05:17:07.462Z,4.40
2023-05-03T05:19:34.034Z,3.90
2023-05-03T05:22:01.161Z,4.30
2023-05-03T05:24:36.264Z,4.70
2023-05-03T05:27:03.808Z,4.20
2023-05-03T05:29:30.364Z,4.20
2023-05-03T05:31:59.162Z,5.20
2023-05-03T05:34:25.879Z,4.60
2023-05-03T05:36:52.661Z,4.50
2023-05-03T05:39:23.402Z,5.10
2023-05-03T05:41:50.474Z,4.20
2023-05-03T05:44:16.969Z,4.70
2023-05-03T05:46:44.192Z,4.40
2023-05-03T05:49:12.058Z,4.00
2023-05-03T05:51:38.829Z,4.10
2023-05-03T05:54:05.709Z,4.80
2023-05-03T05:56:32.152Z,5.80
2023-05-03T05:59:00.184Z,6.60
2023-05-03T06:01:27.107Z,4.90
2023-05-03T06:03:55.314Z,3.80
2023-05-03T06:06:22.415Z,4.00
2023-05-03T06:08:50.876Z,4.70
2023-05-03T06:11:17.627Z,3.90
2023-05-03T06:13:44.517Z,4.70
2023-05-03T06:16:13.986Z,3.70
2023-05-03T06:18:40.521Z,4.10
2023-05-03T06:21:07.283Z,3.30
2023-05-03T06:23:34.695Z,3.70
2023-05-03T06:26:01.857Z,4.50
2023-05-03T06:28:28.530Z,3.80
2023-05-03T06:30:55.915Z,4.30
2023-05-03T06:33:22.344Z,3.60
2023-05-03T06:35:51.025Z,3.70
2023-05-03T06:38:18.724Z,3.60
2023-05-03T06:40:46.316Z,3.90
2023-05-03T06:43:12.853Z,3.40
2023-05-03T06:45:55.014Z,3.30
2023-05-03T06:48:21.732Z,2.70
2023-05-03T06:50:48.668Z,3.60
2023-05-03T06:53:15.221Z,3.80
2023-05-03T06:55:45.670Z,3.90
2023-05-03T06:58:12.242Z,3.90
2023-05-03T07:00:38.785Z,3.30
2023-05-03T07:03:05.957Z,3.60
2023-05-03T07:05:32.465Z,3.20
2023-05-03T07:07:58.939Z,3.20
2023-05-03T07:10:29.082Z,3.20
2023-05-03T07:12:56.930Z,3.20
2023-05-03T07:15:23.715Z,3.70
2023-05-03T07:17:50.165Z,3.60
2023-05-03T07:20:16.608Z,3.90
2023-05-03T07:22:43.935Z,4.30
2023-05-03T07:25:11.845Z,4.60
2023-05-03T07:27:38.282Z,3.80
2023-05-03T07:30:06.419Z,4.10
2023-05-03T07:32:33.017Z,4.70
2023-05-03T07:34:59.446Z,5.00
2023-05-03T07:37:27.112Z,3.70
2023-05-03T07:39:53.486Z,3.60
2023-05-03T07:42:19.970Z,2.90
2023-05-03T07:44:46.386Z,2.70
2023-05-03T07:47:12.763Z,3.00
2023-05-03T07:49:39.219Z,3.50
2023-05-03T07:52:05.714Z,3.00
2023-05-03T07:54:32.177Z,3.00
2023-05-03T07:56:58.634Z,2.90
2023-05-03T07:59:25.093Z,2.70
2023-05-03T08:01:51.932Z,2.60
2023-05-03T08:04:18.549Z,2.10
2023-05-03T08:06:45.637Z,2.60
2023-05-03T08:09:13.354Z,2.80
2023-05-03T08:11:46.290Z,2.80
2023-05-03T08:14:13.661Z,2.60
2023-05-03T08:16:40.236Z,2.60
2023-05-03T08:19:07.386Z,2.30
2023-05-03T08:21:34.860Z,2.50
2023-05-03T08:24:01.629Z,2.90
2023-05-03T08:26:29.357Z,2.50
2023-05-03T08:28:56.019Z,2.80
2023-05-03T08:31:22.470Z,2.20
2023-05-03T08:33:48.971Z,2.60
2023-05-03T08:36:15.546Z,2.60
2023-05-03T08:38:42.339Z,2.90
2023-05-03T08:41:17.156Z,2.90
2023-05-03T08:43:45.144Z,2.80
2023-05-03T08:46:12.892Z,2.60
2023-05-03T08:48:39.526Z,2.40
2023-05-03T08:51:06.052Z,1.80
2023-05-03T08:53:32.503Z,1.60
2023-05-03T08:55:59.083Z,2.20
2023-05-03T08:58:25.772Z,1.70
2023-05-03T09:00:52.263Z,2.20
2023-05-03T09:03:18.733Z,1.70
2023-05-03T09:05:45.881Z,1.90
2023-05-03T09:08:13.068Z,2.00
2023-05-03T09:10:41.276Z,1.60
2023-05-03T09:13:08.471Z,2.00
2023-05-03T09:15:35.234Z,2.30
2023-05-03T09:18:18.879Z,2.10
2023-05-03T09:20:53.558Z,2.30
2023-05-03T09:23:26.242Z,2.60
2023-05-03T09:25:52.875Z,1.90
2023-05-03T09:28:20.094Z,3.40
2023-05-03T09:30:47.677Z,2.20
2023-05-03T09:33:20.418Z,1.90
2023-05-03T09:35:58.402Z,1.90
2023-05-03T09:38:30.025Z,1.70
2023-05-03T09:40:57.201Z,1.80
2023-05-03T09:43:23.702Z,1.40
2023-05-03T09:45:50.404Z,1.40
2023-05-03T09:48:18.284Z,1.80
2023-05-03T09:50:44.869Z,1.60
2023-05-03T09:53:12.445Z,1.60
2023-05-03T09:55:39.579Z,1.60
2023-05-03T09:58:07.132Z,1.10
2023-05-03T10:00:37.930Z,1.30
2023-05-03T10:03:10.810Z,1.70
2023-05-03T10:05:51.122Z,1.30
2023-05-03T10:08:34.587Z,2.00
2023-05-03T10:11:03.197Z,1.70
2023-05-03T10:13:29.875Z,1.40
2023-05-03T10:16:19.272Z,1.70
2023-05-03T10:18:54.016Z,1.30
2023-05-03T10:21:48.430Z,1.60
2023-05-03T10:24:16.595Z,1.50
2023-05-03T10:26:47.248Z,1.40
2023-05-03T10:29:36.544Z,1.50
2023-05-03T10:32:29.425Z,2.00
2023-05-03T10:35:03.723Z,1.90
2023-05-03T10:37:32.392Z,1.40
2023-05-03T10:40:07.246Z,1.50
2023-05-03T10:42:33.731Z,1.50
2023-05-03T10:45:01.460Z,1.20
2023-05-03T10:47:28.270Z,1.50
2023-05-03T10:50:13.924Z,1.60
2023-05-03T10:52:40.280Z,2.00
2023-05-03T10:55:17.889Z,2.00
2023-05-03T10:57:47.379Z,1.60
2023-05-03T11:00:28.257Z,1.40
2023-05-03T11:03:25.866Z,1.60
2023-05-03T11:05:53.444Z,1.50
2023-05-03T11:08:21.456Z,1.70
2023-05-03T11:10:50.710Z,1.60
2023-05-03T11:13:17.128Z,1.90
2023-05-03T11:15:44.505Z,1.90
2023-05-03T11:18:12.307Z,1.60
2023-05-03T11:20:39.066Z,1.60
2023-05-03T11:23:06.704Z,1.50
2023-05-03T11:25:33.822Z,1.60
2023-05-03T11:28:01.538Z,1.70
2023-05-03T11:30:28.955Z,1.50
2023-05-03T11:32:55.983Z,1.80
2023-05-03T11:35:26.295Z,2.00
2023-05-03T11:37:55.724Z,2.00
2023-05-03T11:40:22.359Z,1.90
2023-05-03T11:42:52.916Z,1.80
2023-05-03T11:45:32.042Z,2.10
2023-05-03T11:47:58.845Z,1.40
2023-05-03T11:50:54.972Z,1.00
2023-05-03T11:53:25.785Z,1.40
2023-05-03T11:55:53.477Z,1.00
2023-05-03T11:58:24.238Z,1.20
2023-05-03T12:00:54.964Z,2.10
2023-05-03T12:03:24.755Z,1.60
2023-05-03T12:05:56.622Z,1.10
2023-05-03T12:08:36.108Z,1.00
2023-05-03T12:11:06.637Z,1.70
2023-05-03T12:13:37.508Z,1.90
2023-05-03T12:16:11.529Z,1.60
2023-05-03T12:18:49.624Z,1.60
2023-05-03T12:23:51.665Z,1.50
2023-05-03T12:26:19.518Z,1.50
2023-05-03T12:28:47.653Z,1.50
2023-05-03T12:31:17.559Z,1.30
2023-05-03T12:33:53.832Z,1.60
2023-05-03T12:36:37.357Z,1.50
2023-05-03T12:39:09.505Z,1.40
2023-05-03T12:44:09.893Z,2.20
2023-05-03T12:46:37.972Z,1.80
2023-05-03T12:49:07.509Z,2.60
2023-05-03T12:51:35.364Z,2.30
2023-05-03T12:54:08.940Z,1.90
2023-05-03T12:59:34.937Z,4.80
2023-05-03T13:04:40.958Z,1.60
2023-05-03T13:07:12.618Z,2.10
2023-05-03T13:12:27.415Z,1.70
2023-05-03T13:14:57.309Z,3.70
2023-05-03T13:17:24.023Z,1.80
2023-05-03T13:19:51.718Z,2.40
2023-05-03T13:22:18.368Z,2.50
2023-05-03T13:24:47.029Z,2.10
2023-05-03T13:27:15.163Z,2.20
2023-05-03T13:29:41.647Z,2.20
2023-05-03T13:32:08.852Z,1.70
2023-05-03T13:34:35.619Z,1.60
2023-05-03T13:37:02.384Z,1.70
2023-05-03T13:39:28.941Z,2.10
2023-05-03T13:41:55.425Z,2.50
2023-05-03T13:44:24.728Z,2.30
2023-05-03T13:46:51.865Z,1.90
2023-05-03T13:49:18.268Z,1.60
2023-05-03T13:51:44.827Z,2.50
2023-05-03T13:54:11.282Z,2.00
2023-05-03T13:56:38.025Z,2.20
2023-05-03T13:59:07.241Z,3.40
2023-05-03T14:01:33.808Z,2.50
2023-05-03T14:04:00.428Z,1.90
2023-05-03T14:06:28.257Z,2.00
2023-05-03T14:08:57.141Z,1.40
2023-05-03T14:11:27.360Z,1.90
2023-05-03T14:13:56.525Z,1.60
2023-05-03T14:18:54.193Z,1.60
2023-05-03T14:21:20.793Z,1.90
2023-05-03T14:23:49.460Z,2.10
2023-05-03T14:26:17.166Z,2.40
2023-05-03T14:28:44.104Z,2.30
2023-05-03T14:31:10.850Z,1.30
2023-05-03T14:33:37.404Z,1.90
2023-05-03T14:36:07.580Z,1.90
2023-05-03T14:38:35.328Z,1.30
2023-05-03T14:41:01.890Z,1.80
2023-05-03T14:43:28.432Z,1.60
2023-05-03T14:45:54.821Z,2.50
2023-05-03T14:48:21.360Z,2.20
2023-05-03T14:50:49.469Z,2.60
2023-05-03T14:53:16.508Z,2.00
2023-05-03T14:55:42.889Z,1.90
2023-05-03T14:58:10.140Z,1.60
2023-05-03T15:00:39.417Z,1.70
2023-05-03T15:03:10.711Z,2.20
2023-05-03T15:05:47.806Z,2.20
2023-05-03T15:08:16.139Z,1.80
2023-05-03T15:10:44.095Z,1.90
2023-05-03T15:13:12.096Z,1.80
2023-05-03T15:15:39.271Z,2.00
2023-05-03T15:18:07.303Z,2.10
2023-05-03T15:20:34.735Z,1.60
2023-05-03T15:23:05.287Z,1.40
2023-05-03T15:25:32.063Z,1.70
2023-05-03T15:28:00.572Z,1.70
2023-05-03T15:30:28.384Z,1.70
2023-05-03T15:32:54.864Z,1.80
2023-05-03T15:35:21.200Z,1.70
2023-05-03T15:37:47.758Z,1.40
2023-05-03T15:40:14.627Z,1.90
2023-05-03T15:42:41.252Z,1.70
2023-05-03T15:45:09.624Z,1.60
2023-05-03T15:47:36.204Z,1.50
2023-05-03T15:50:03.286Z,1.30
2023-05-03T15:52:30.351Z,1.60
2023-05-03T15:54:56.782Z,1.90
2023-05-03T15:57:23.796Z,1.50
2023-05-03T15:59:50.126Z,1.80
2023-05-03T16:02:16.552Z,2.30
2023-05-03T16:04:43.151Z,2.00
2023-05-03T16:07:10.969Z,2.00
2023-05-03T16:09:37.670Z,1.60
2023-05-03T16:12:04.529Z,1.30
2023-05-03T16:14:31.992Z,1.60
2023-05-03T16:16:58.930Z,1.70
2023-05-03T16:19:26.326Z,1.80
2023-05-03T16:21:53.224Z,1.50
2023-05-03T16:24:19.748Z,1.80
2023-05-03T16:26:46.303Z,1.50
2023-05-03T16:29:12.841Z,1.60
2023-05-03T16:31:39.354Z,1.30
2023-05-03T16:34:06.089Z,2.00
2023-05-03T16:36:33.099Z,2.30
2023-05-03T16:38:59.506Z,2.60
2023-05-03T16:41:26.059Z,2.20
2023-05-03T16:43:52.616Z,2.50
2023-05-03T16:46:19.714Z,2.70
2023-05-03T16:48:47.515Z,2.80
2023-05-03T16:51:14.452Z,2.40
2023-05-03T16:53:41.576Z,2.40
2023-05-03T16:56:08.100Z,2.20
2023-05-03T16:58:35.002Z,1.70
2023-05-03T17:01:02.006Z,1.70
2023-05-03T17:03:28.570Z,1.70
2023-05-03T17:05:55.472Z,1.80
2023-05-03T17:08:22.035Z,1.50
2023-05-03T17:10:49.475Z,1.30
2023-05-03T17:13:16.738Z,2.30
2023-05-03T17:15:43.359Z,3.20
2023-05-03T17:18:10.103Z,4.20
2023-05-03T17:20:37.369Z,3.90
2023-05-03T17:23:05.003Z,2.80
2023-05-03T17:25:32.637Z,1.80
2023-05-03T17:27:59.139Z,1.70
2023-05-03T17:30:25.937Z,1.80
2023-05-03T17:32:52.523Z,1.50
2023-05-03T17:35:19.320Z,1.40
2023-05-03T17:37:46.096Z,1.70
2023-05-03T17:40:13.218Z,1.40
2023-05-03T17:42:39.677Z,1.30
2023-05-03T17:45:07.809Z,1.30
2023-05-03T17:47:34.299Z,1.90
2023-05-03T17:50:00.698Z,1.30
2023-05-03T17:52:27.224Z,1.80
2023-05-03T17:54:54.350Z,2.00
2023-05-03T17:57:20.965Z,2.30
2023-05-03T17:59:48.156Z,1.80
2023-05-03T18:02:14.765Z,1.70
2023-05-03T18:04:41.223Z,1.70
2023-05-03T18:07:07.673Z,1.90
2023-05-03T18:09:34.157Z,1.80
2023-05-03T18:12:02.733Z,1.60
2023-05-03T18:14:29.243Z,1.90
2023-05-03T18:16:55.753Z,1.80
2023-05-03T18:19:23.326Z,2.00
2023-05-03T18:21:49.954Z,1.80
2023-05-03T18:24:16.472Z,2.00
2023-05-03T18:26:43.068Z,2.50
2023-05-03T18:29:09.647Z,2.00
2023-05-03T18:31:36.213Z,2.60
2023-05-03T18:34:03.417Z,2.50
2023-05-03T18:36:30.714Z,3.00
2023-05-03T18:38:57.112Z,2.90
2023-05-03T18:41:23.575Z,3.50
2023-05-03T18:43:51.315Z,3.80
2023-05-03T18:46:18.827Z,3.80
2023-05-03T18:48:48.791Z,3.80
2023-05-03T18:51:15.887Z,3.30
2023-05-03T18:53:42.834Z,2.70
2023-05-03T18:56:09.559Z,2.80
2023-05-03T18:58:36.698Z,2.70
2023-05-03T19:01:04.056Z,3.10
2023-05-03T19:03:30.571Z,2.70
2023-05-03T19:06:06.640Z,2.90
2023-05-03T19:08:33.193Z,3.20
2023-05-03T19:11:08.151Z,3.60
2023-05-03T19:13:34.814Z,3.50
2023-05-03T19:16:02.892Z,3.60
2023-05-03T19:18:29.561Z,3.30
2023-05-03T19:20:56.694Z,4.10
2023-05-03T19:23:23.190Z,4.30
2023-05-03T19:25:49.677Z,4.10
2023-05-03T19:28:16.191Z,4.50
2023-05-03T19:30:44.980Z,3.70
2023-05-03T19:33:11.587Z,4.00
2023-05-03T19:35:41.844Z,4.10
2023-05-03T19:38:08.436Z,4.90
2023-05-03T19:40:36.187Z,4.40
2023-05-03T19:43:02.793Z,4.40
2023-05-03T19:45:29.316Z,5.30
2023-05-03T19:47:56.039Z,5.20
2023-05-03T19:50:22.688Z,5.70
2023-05-03T19:52:52.698Z,6.00
2023-05-03T19:55:20.263Z,5.90
2023-05-03T19:57:46.719Z,5.10
2023-05-03T20:00:15.094Z,5.30
2023-05-03T20:02:41.597Z,5.80
2023-05-03T20:05:08.409Z,5.60
2023-05-03T20:07:34.836Z,5.70
2023-05-03T20:10:01.854Z,5.60
2023-05-03T20:12:28.592Z,6.50
2023-05-03T20:14:55.275Z,5.80
2023-05-03T20:17:21.764Z,5.60
2023-05-03T20:19:49.321Z,6.70
2023-05-03T20:22:16.809Z,6.60
2023-05-03T20:24:43.374Z,6.00
2023-05-03T20:27:10.139Z,6.60
2023-05-03T20:29:36.627Z,6.50
2023-05-03T20:32:03.333Z,6.40
2023-05-03T20:34:29.955Z,6.30
2023-05-03T20:36:56.513Z,6.30
2023-05-03T20:39:23.440Z,6.90
2023-05-03T20:41:49.839Z,7.10
2023-05-03T20:44:16.324Z,6.20
2023-05-03T20:46:44.785Z,6.60
2023-05-03T20:49:11.512Z,6.20
2023-05-03T20:51:38.089Z,6.30
2023-05-03T20:54:04.502Z,5.90
2023-05-03T20:56:32.827Z,5.80
2023-05-03T20:58:59.215Z,5.60
2023-05-03T21:01:25.758Z,6.30
2023-05-03T21:03:52.206Z,6.00
2023-05-03T21:06:18.695Z,5.30
2023-05-03T21:08:45.089Z,5.30
2023-05-03T21:11:11.510Z,5.10
2023-05-03T21:13:38.087Z,5.90
2023-05-03T21:16:07.380Z,6.10
2023-05-03T21:18:33.952Z,5.80
2023-05-03T21:21:00.430Z,5.70
2023-05-03T21:23:26.946Z,5.30
2023-05-03T21:25:55.884Z,5.40
2023-05-03T21:28:22.908Z,6.70
2023-05-03T21:30:49.384Z,7.60
2023-05-03T21:33:15.888Z,8.00
2023-05-03T21:35:42.946Z,6.90
2023-05-03T21:38:09.613Z,6.90
2023-05-03T21:40:36.309Z,6.60
2023-05-03T21:43:03.933Z,6.00
2023-05-03T21:45:30.408Z,5.80
2023-05-03T21:47:56.948Z,5.10
2023-05-03T21:50:23.724Z,5.00
2023-05-03T21:52:50.447Z,4.90
2023-05-03T21:55:17.200Z,4.50
2023-05-03T21:57:43.907Z,4.90
2023-05-03T22:00:20.001Z,4.60
2023-05-03T22:02:47.436Z,4.50
2023-05-03T22:05:13.973Z,4.60
2023-05-03T22:07:40.400Z,4.60
2023-05-03T22:10:08.097Z,4.50
2023-05-03T22:12:34.649Z,5.00
2023-05-03T22:15:01.129Z,4.40
2023-05-03T22:17:27.562Z,4.10
2023-05-03T22:19:54.218Z,4.70
2023-05-03T22:22:20.625Z,4.50
2023-05-03T22:24:46.967Z,4.80
2023-05-03T22:27:13.384Z,4.90
2023-05-03T22:29:39.966Z,3.90
2023-05-03T22:32:06.750Z,4.00
2023-05-03T22:34:33.585Z,4.00
2023-05-03T22:36:59.969Z,4.00
2023-05-03T22:39:26.582Z,4.50
2023-05-03T22:41:53.038Z,4.40
2023-05-03T22:44:19.486Z,3.90
2023-05-03T22:46:46.342Z,4.20
2023-05-03T22:49:13.046Z,4.40
2023-05-03T22:51:39.496Z,3.80
2023-05-03T22:54:06.052Z,4.50
2023-05-03T22:56:32.542Z,4.20
2023-05-03T22:58:58.931Z,4.30
2023-05-03T23:01:26.173Z,4.50
2023-05-03T23:03:52.657Z,4.70
2023-05-03T23:06:19.235Z,4.50
2023-05-03T23:08:45.829Z,4.50
2023-05-03T23:11:12.260Z,4.30
2023-05-03T23:13:38.762Z,4.50
2023-05-03T23:16:07.395Z,4.70
2023-05-03T23:18:33.872Z,4.30
2023-05-03T23:21:00.390Z,4.20
2023-05-03T23:23:26.873Z,4.40
2023-05-03T23:25:53.313Z,4.40
2023-05-03T23:28:20.601Z,4.30
2023-05-03T23:30:47.584Z,4.00
2023-05-03T23:33:14.646Z,3.90
2023-05-03T23:35:41.468Z,4.20
2023-05-03T23:38:07.944Z,4.10
2023-05-03T23:40:34.554Z,3.70
2023-05-03T23:43:01.092Z,3.70
2023-05-03T23:45:27.401Z,4.40
2023-05-03T23:47:54.000Z,3.60
2023-05-03T23:50:20.640Z,4.30
2023-05-03T23:52:47.287Z,3.80
2023-05-03T23:55:13.780Z,3.20
2023-05-03T23:57:40.366Z,4.10
